sensor_id;sensor_type;location;lat;lon;timestamp;P1;durP1;ratioP1;P2;durP2;ratioP2
31760;SDS011;18335;51.486;7.562;2023-08-24T00:00:29;11.93;;;6.90;;
31760;SDS011;18335;51.486;7.562;2023-08-24T00:02:57;12.35;;;5.85;;
31760;SDS011;18335;51.486;7.562;2023-08-24T00:05:24;10.38;;;5.78;;
31760;SDS011;18335;51.486;7.562;2023-08-24T00:07:51;16.85;;;6.55;;
31760;SDS011;18335;51.486;7.562;2023-08-24T00:10:18;16.50;;;6.55;;
31760;SDS011;18335;51.486;7.562;2023-08-24T00:12:45;13.82;;;6.85;;
31760;SDS011;18335;51.486;7.562;2023-08-24T00:15:11;11.50;;;6.05;;
31760;SDS011;18335;51.486;7.562;2023-08-24T00:17:39;17.45;;;7.28;;
31760;SDS011;18335;51.486;7.562;2023-08-24T00:20:06;14.07;;;6.72;;
31760;SDS011;18335;51.486;7.562;2023-08-24T00:22:36;12.20;;;6.63;;
31760;SDS011;18335;51.486;7.562;2023-08-24T00:25:04;10.25;;;5.55;;
31760;SDS011;18335;51.486;7.562;2023-08-24T00:27:32;15.82;;;6.82;;
31760;SDS011;18335;51.486;7.562;2023-08-24T00:29:59;14.98;;;6.88;;
31760;SDS011;18335;51.486;7.562;2023-08-24T00:32:25;11.15;;;6.45;;
31760;SDS011;18335;51.486;7.562;2023-08-24T00:34:55;11.82;;;6.57;;
31760;SDS011;18335;51.486;7.562;2023-08-24T00:37:22;11.93;;;6.00;;
31760;SDS011;18335;51.486;7.562;2023-08-24T00:39:49;14.07;;;7.53;;
31760;SDS011;18335;51.486;7.562;2023-08-24T00:42:16;12.07;;;7.50;;
31760;SDS011;18335;51.486;7.562;2023-08-24T00:44:43;12.95;;;7.07;;
31760;SDS011;18335;51.486;7.562;2023-08-24T00:47:10;17.38;;;7.13;;
31760;SDS011;18335;51.486;7.562;2023-08-24T00:49:38;13.30;;;7.15;;
31760;SDS011;18335;51.486;7.562;2023-08-24T00:52:06;9.77;;;6.03;;
31760;SDS011;18335;51.486;7.562;2023-08-24T00:54:33;17.13;;;7.88;;
31760;SDS011;18335;51.486;7.562;2023-08-24T00:57:00;13.32;;;8.40;;
31760;SDS011;18335;51.486;7.562;2023-08-24T00:59:27;14.23;;;9.02;;
31760;SDS011;18335;51.486;7.562;2023-08-24T01:01:54;15.95;;;8.27;;
31760;SDS011;18335;51.486;7.562;2023-08-24T01:04:22;18.05;;;9.75;;
31760;SDS011;18335;51.486;7.562;2023-08-24T01:06:49;18.02;;;8.30;;
31760;SDS011;18335;51.486;7.562;2023-08-24T01:09:17;17.60;;;8.77;;
31760;SDS011;18335;51.486;7.562;2023-08-24T01:11:49;12.70;;;8.48;;
31760;SDS011;18335;51.486;7.562;2023-08-24T01:14:27;18.38;;;9.55;;
31760;SDS011;18335;51.486;7.562;2023-08-24T01:17:01;17.45;;;9.63;;
31760;SDS011;18335;51.486;7.562;2023-08-24T01:19:34;17.90;;;9.75;;
31760;SDS011;18335;51.486;7.562;2023-08-24T01:22:05;16.67;;;9.85;;
31760;SDS011;18335;51.486;7.562;2023-08-24T01:24:40;14.80;;;8.40;;
31760;SDS011;18335;51.486;7.562;2023-08-24T01:27:13;17.77;;;9.45;;
31760;SDS011;18335;51.486;7.562;2023-08-24T01:29:41;15.85;;;9.32;;
31760;SDS011;18335;51.486;7.562;2023-08-24T01:32:09;16.60;;;9.18;;
31760;SDS011;18335;51.486;7.562;2023-08-24T01:34:37;13.35;;;9.25;;
31760;SDS011;18335;51.486;7.562;2023-08-24T01:37:05;14.50;;;9.15;;
31760;SDS011;18335;51.486;7.562;2023-08-24T01:39:35;14.68;;;8.75;;
31760;SDS011;18335;51.486;7.562;2023-08-24T01:42:08;18.80;;;9.63;;
31760;SDS011;18335;51.486;7.562;2023-08-24T01:44:41;15.40;;;9.13;;
31760;SDS011;18335;51.486;7.562;2023-08-24T01:47:11;14.75;;;8.27;;
31760;SDS011;18335;51.486;7.562;2023-08-24T01:49:40;15.50;;;7.75;;
31760;SDS011;18335;51.486;7.562;2023-08-24T01:52:08;15.80;;;8.15;;
31760;SDS011;18335;51.486;7.562;2023-08-24T01:54:36;11.75;;;7.72;;
31760;SDS011;18335;51.486;7.562;2023-08-24T01:57:04;13.35;;;7.90;;
31760;SDS011;18335;51.486;7.562;2023-08-24T01:59:31;15.85;;;8.45;;
31760;SDS011;18335;51.486;7.562;2023-08-24T02:02:01;15.93;;;8.27;;
31760;SDS011;18335;51.486;7.562;2023-08-24T02:04:28;17.08;;;7.70;;
31760;SDS011;18335;51.486;7.562;2023-08-24T02:06:54;12.05;;;7.68;;
31760;SDS011;18335;51.486;7.562;2023-08-24T02:09:21;17.30;;;8.35;;
31760;SDS011;18335;51.486;7.562;2023-08-24T02:11:51;12.63;;;8.80;;
31760;SDS011;18335;51.486;7.562;2023-08-24T02:14:18;12.73;;;7.63;;
31760;SDS011;18335;51.486;7.562;2023-08-24T02:16:44;14.77;;;8.35;;
31760;SDS011;18335;51.486;7.562;2023-08-24T02:19:12;14.48;;;9.35;;
31760;SDS011;18335;51.486;7.562;2023-08-24T02:21:39;14.43;;;9.32;;
31760;SDS011;18335;51.486;7.562;2023-08-24T02:24:06;15.10;;;8.73;;
31760;SDS011;18335;51.486;7.562;2023-08-24T02:26:33;18.83;;;9.20;;
31760;SDS011;18335;51.486;7.562;2023-08-24T02:29:00;13.00;;;8.70;;
31760;SDS011;18335;51.486;7.562;2023-08-24T02:31:28;13.52;;;8.50;;
31760;SDS011;18335;51.486;7.562;2023-08-24T02:33:54;14.23;;;8.82;;
31760;SDS011;18335;51.486;7.562;2023-08-24T02:36:23;14.38;;;9.05;;
31760;SDS011;18335;51.486;7.562;2023-08-24T02:38:49;17.75;;;9.48;;
31760;SDS011;18335;51.486;7.562;2023-08-24T02:41:17;15.05;;;8.80;;
31760;SDS011;18335;51.486;7.562;2023-08-24T02:43:44;16.17;;;8.55;;
31760;SDS011;18335;51.486;7.562;2023-08-24T02:46:11;16.50;;;10.23;;
31760;SDS011;18335;51.486;7.562;2023-08-24T02:48:38;19.60;;;10.05;;
31760;SDS011;18335;51.486;7.562;2023-08-24T02:51:05;15.88;;;9.57;;
31760;SDS011;18335;51.486;7.562;2023-08-24T02:53:33;16.80;;;8.90;;
31760;SDS011;18335;51.486;7.562;2023-08-24T02:56:00;14.73;;;9.27;;
31760;SDS011;18335;51.486;7.562;2023-08-24T02:58:27;14.82;;;9.57;;
31760;SDS011;18335;51.486;7.562;2023-08-24T03:00:54;19.20;;;10.98;;
31760;SDS011;18335;51.486;7.562;2023-08-24T03:03:22;14.95;;;9.43;;
31760;SDS011;18335;51.486;7.562;2023-08-24T03:05:57;18.80;;;10.13;;
31760;SDS011;18335;51.486;7.562;2023-08-24T03:10:55;14.70;;;8.73;;
31760;SDS011;18335;51.486;7.562;2023-08-24T03:13:22;14.20;;;9.63;;
31760;SDS011;18335;51.486;7.562;2023-08-24T03:15:49;14.70;;;8.70;;
31760;SDS011;18335;51.486;7.562;2023-08-24T03:18:18;16.35;;;9.38;;
31760;SDS011;18335;51.486;7.562;2023-08-24T03:20:46;14.98;;;9.02;;
31760;SDS011;18335;51.486;7.562;2023-08-24T03:23:14;15.32;;;9.52;;
31760;SDS011;18335;51.486;7.562;2023-08-24T03:25:42;16.02;;;9.57;;
31760;SDS011;18335;51.486;7.562;2023-08-24T03:28:10;14.73;;;8.93;;
31760;SDS011;18335;51.486;7.562;2023-08-24T03:30:38;14.55;;;8.80;;
31760;SDS011;18335;51.486;7.562;2023-08-24T03:33:06;13.65;;;8.20;;
31760;SDS011;18335;51.486;7.562;2023-08-24T03:35:33;13.82;;;9.88;;
31760;SDS011;18335;51.486;7.562;2023-08-24T03:38:00;22.75;;;9.70;;
31760;SDS011;18335;51.486;7.562;2023-08-24T03:40:28;14.43;;;8.50;;
31760;SDS011;18335;51.486;7.562;2023-08-24T03:42:55;14.27;;;8.07;;
31760;SDS011;18335;51.486;7.562;2023-08-24T03:45:23;17.92;;;8.43;;
31760;SDS011;18335;51.486;7.562;2023-08-24T03:47:50;15.63;;;8.90;;
31760;SDS011;18335;51.486;7.562;2023-08-24T03:50:17;16.83;;;8.93;;
31760;SDS011;18335;51.486;7.562;2023-08-24T03:52:44;19.42;;;9.75;;
31760;SDS011;18335;51.486;7.562;2023-08-24T03:55:11;15.15;;;9.30;;
31760;SDS011;18335;51.486;7.562;2023-08-24T03:57:38;15.38;;;8.88;;
31760;SDS011;18335;51.486;7.562;2023-08-24T04:00:05;15.05;;;9.27;;
31760;SDS011;18335;51.486;7.562;2023-08-24T04:02:44;14.52;;;8.73;;
31760;SDS011;18335;51.486;7.562;2023-08-24T04:05:21;16.67;;;9.73;;
31760;SDS011;18335;51.486;7.562;2023-08-24T04:07:48;15.38;;;9.25;;
31760;SDS011;18335;51.486;7.562;2023-08-24T04:10:14;12.57;;;8.30;;
31760;SDS011;18335;51.486;7.562;2023-08-24T04:12:41;15.45;;;8.43;;
31760;SDS011;18335;51.486;7.562;2023-08-24T04:15:09;12.70;;;7.70;;
31760;SDS011;18335;51.486;7.562;2023-08-24T04:17:36;14.48;;;8.38;;
31760;SDS011;18335;51.486;7.562;2023-08-24T04:20:05;13.57;;;7.85;;
31760;SDS011;18335;51.486;7.562;2023-08-24T04:22:33;19.58;;;9.43;;
31760;SDS011;18335;51.486;7.562;2023-08-24T04:25:00;14.07;;;8.00;;
31760;SDS011;18335;51.486;7.562;2023-08-24T04:27:26;14.10;;;9.23;;
31760;SDS011;18335;51.486;7.562;2023-08-24T04:29:53;16.30;;;9.60;;
31760;SDS011;18335;51.486;7.562;2023-08-24T04:32:21;13.85;;;8.93;;
31760;SDS011;18335;51.486;7.562;2023-08-24T04:34:48;13.93;;;8.30;;
31760;SDS011;18335;51.486;7.562;2023-08-24T04:37:17;17.98;;;9.80;;
31760;SDS011;18335;51.486;7.562;2023-08-24T04:39:43;15.95;;;8.23;;
31760;SDS011;18335;51.486;7.562;2023-08-24T04:42:10;13.40;;;8.10;;
31760;SDS011;18335;51.486;7.562;2023-08-24T04:44:37;13.45;;;7.93;;
31760;SDS011;18335;51.486;7.562;2023-08-24T04:47:06;15.30;;;7.85;;
31760;SDS011;18335;51.486;7.562;2023-08-24T04:49:33;16.10;;;7.75;;
31760;SDS011;18335;51.486;7.562;2023-08-24T04:52:00;14.07;;;7.47;;
31760;SDS011;18335;51.486;7.562;2023-08-24T04:54:28;14.07;;;7.65;;
31760;SDS011;18335;51.486;7.562;2023-08-24T04:56:55;16.23;;;8.65;;
31760;SDS011;18335;51.486;7.562;2023-08-24T04:59:22;15.55;;;7.85;;
31760;SDS011;18335;51.486;7.562;2023-08-24T05:01:49;18.52;;;9.73;;
31760;SDS011;18335;51.486;7.562;2023-08-24T05:04:15;17.50;;;9.43;;
31760;SDS011;18335;51.486;7.562;2023-08-24T05:06:42;20.58;;;10.13;;
31760;SDS011;18335;51.486;7.562;2023-08-24T05:09:09;20.17;;;9.90;;
31760;SDS011;18335;51.486;7.562;2023-08-24T05:11:37;16.67;;;9.43;;
31760;SDS011;18335;51.486;7.562;2023-08-24T05:14:04;14.85;;;9.10;;
31760;SDS011;18335;51.486;7.562;2023-08-24T05:16:31;19.17;;;10.10;;
31760;SDS011;18335;51.486;7.562;2023-08-24T05:18:57;17.25;;;9.55;;
31760;SDS011;18335;51.486;7.562;2023-08-24T05:21:24;16.20;;;9.27;;
31760;SDS011;18335;51.486;7.562;2023-08-24T05:23:51;18.30;;;9.80;;
31760;SDS011;18335;51.486;7.562;2023-08-24T05:26:17;16.02;;;9.15;;
31760;SDS011;18335;51.486;7.562;2023-08-24T05:28:49;17.38;;;8.75;;
31760;SDS011;18335;51.486;7.562;2023-08-24T05:31:16;14.15;;;8.40;;
31760;SDS011;18335;51.486;7.562;2023-08-24T05:33:42;14.85;;;7.75;;
31760;SDS011;18335;51.486;7.562;2023-08-24T05:36:09;12.30;;;7.32;;
31760;SDS011;18335;51.486;7.562;2023-08-24T05:38:36;14.13;;;7.70;;
31760;SDS011;18335;51.486;7.562;2023-08-24T05:41:03;19.10;;;8.02;;
31760;SDS011;18335;51.486;7.562;2023-08-24T05:43:30;14.02;;;7.57;;
31760;SDS011;18335;51.486;7.562;2023-08-24T05:45:58;13.65;;;7.32;;
31760;SDS011;18335;51.486;7.562;2023-08-24T05:48:25;14.95;;;7.30;;
31760;SDS011;18335;51.486;7.562;2023-08-24T05:50:51;15.27;;;7.65;;
31760;SDS011;18335;51.486;7.562;2023-08-24T05:53:18;17.27;;;7.35;;
31760;SDS011;18335;51.486;7.562;2023-08-24T05:55:45;15.07;;;7.25;;
31760;SDS011;18335;51.486;7.562;2023-08-24T05:58:11;11.60;;;7.72;;
31760;SDS011;18335;51.486;7.562;2023-08-24T06:00:38;14.73;;;9.30;;
31760;SDS011;18335;51.486;7.562;2023-08-24T06:03:06;17.10;;;8.75;;
31760;SDS011;18335;51.486;7.562;2023-08-24T06:05:33;15.05;;;8.10;;
31760;SDS011;18335;51.486;7.562;2023-08-24T06:08:00;16.27;;;8.43;;
31760;SDS011;18335;51.486;7.562;2023-08-24T06:10:26;14.35;;;8.25;;
31760;SDS011;18335;51.486;7.562;2023-08-24T06:12:53;18.80;;;7.90;;
31760;SDS011;18335;51.486;7.562;2023-08-24T06:15:20;14.80;;;8.10;;
31760;SDS011;18335;51.486;7.562;2023-08-24T06:17:49;15.73;;;8.98;;
31760;SDS011;18335;51.486;7.562;2023-08-24T06:20:17;14.63;;;8.40;;
31760;SDS011;18335;51.486;7.562;2023-08-24T06:22:44;15.40;;;8.57;;
31760;SDS011;18335;51.486;7.562;2023-08-24T06:25:11;15.75;;;8.27;;
31760;SDS011;18335;51.486;7.562;2023-08-24T06:27:38;13.15;;;8.10;;
31760;SDS011;18335;51.486;7.562;2023-08-24T06:30:05;14.82;;;8.25;;
31760;SDS011;18335;51.486;7.562;2023-08-24T06:32:32;13.88;;;7.88;;
31760;SDS011;18335;51.486;7.562;2023-08-24T06:34:59;15.38;;;7.75;;
31760;SDS011;18335;51.486;7.562;2023-08-24T06:37:27;15.43;;;7.75;;
31760;SDS011;18335;51.486;7.562;2023-08-24T06:39:54;15.77;;;8.32;;
31760;SDS011;18335;51.486;7.562;2023-08-24T06:42:21;13.90;;;7.70;;
31760;SDS011;18335;51.486;7.562;2023-08-24T06:44:48;17.83;;;7.65;;
31760;SDS011;18335;51.486;7.562;2023-08-24T06:47:16;16.08;;;8.38;;
31760;SDS011;18335;51.486;7.562;2023-08-24T06:49:43;14.80;;;7.78;;
31760;SDS011;18335;51.486;7.562;2023-08-24T06:52:09;13.10;;;7.05;;
31760;SDS011;18335;51.486;7.562;2023-08-24T06:54:37;14.38;;;7.40;;
31760;SDS011;18335;51.486;7.562;2023-08-24T06:57:04;12.18;;;7.28;;
31760;SDS011;18335;51.486;7.562;2023-08-24T06:59:31;13.48;;;7.03;;
31760;SDS011;18335;51.486;7.562;2023-08-24T07:01:58;13.07;;;7.57;;
31760;SDS011;18335;51.486;7.562;2023-08-24T07:04:25;17.75;;;6.88;;
31760;SDS011;18335;51.486;7.562;2023-08-24T07:06:53;14.93;;;7.60;;
31760;SDS011;18335;51.486;7.562;2023-08-24T07:09:19;12.93;;;6.75;;
31760;SDS011;18335;51.486;7.562;2023-08-24T07:11:48;14.88;;;6.95;;
31760;SDS011;18335;51.486;7.562;2023-08-24T07:14:15;13.95;;;7.45;;
31760;SDS011;18335;51.486;7.562;2023-08-24T07:16:41;17.35;;;7.95;;
31760;SDS011;18335;51.486;7.562;2023-08-24T07:19:09;14.20;;;7.30;;
31760;SDS011;18335;51.486;7.562;2023-08-24T07:21:36;13.93;;;7.63;;
31760;SDS011;18335;51.486;7.562;2023-08-24T07:24:03;14.07;;;6.97;;
31760;SDS011;18335;51.486;7.562;2023-08-24T07:26:30;12.73;;;6.68;;
31760;SDS011;18335;51.486;7.562;2023-08-24T07:28:58;12.38;;;7.13;;
31760;SDS011;18335;51.486;7.562;2023-08-24T07:31:25;13.48;;;7.00;;
31760;SDS011;18335;51.486;7.562;2023-08-24T07:33:52;19.73;;;7.97;;
31760;SDS011;18335;51.486;7.562;2023-08-24T07:36:19;14.05;;;6.55;;
31760;SDS011;18335;51.486;7.562;2023-08-24T07:38:46;11.23;;;5.72;;
31760;SDS011;18335;51.486;7.562;2023-08-24T07:41:13;14.27;;;5.93;;
31760;SDS011;18335;51.486;7.562;2023-08-24T07:43:40;12.85;;;6.35;;
31760;SDS011;18335;51.486;7.562;2023-08-24T07:46:08;14.80;;;6.22;;
31760;SDS011;18335;51.486;7.562;2023-08-24T07:48:35;14.32;;;5.55;;
31760;SDS011;18335;51.486;7.562;2023-08-24T07:51:02;11.65;;;5.90;;
31760;SDS011;18335;51.486;7.562;2023-08-24T07:53:29;15.88;;;5.80;;
31760;SDS011;18335;51.486;7.562;2023-08-24T07:55:56;14.57;;;6.68;;
31760;SDS011;18335;51.486;7.562;2023-08-24T07:58:23;10.05;;;5.38;;
31760;SDS011;18335;51.486;7.562;2023-08-24T08:00:50;10.65;;;4.15;;
31760;SDS011;18335;51.486;7.562;2023-08-24T08:03:18;11.75;;;4.60;;
31760;SDS011;18335;51.486;7.562;2023-08-24T08:05:45;9.15;;;4.10;;
31760;SDS011;18335;51.486;7.562;2023-08-24T08:08:12;9.93;;;4.70;;
31760;SDS011;18335;51.486;7.562;2023-08-24T08:10:39;8.50;;;4.22;;
31760;SDS011;18335;51.486;7.562;2023-08-24T08:13:06;12.43;;;4.20;;
31760;SDS011;18335;51.486;7.562;2023-08-24T08:15:33;9.68;;;4.18;;
31760;SDS011;18335;51.486;7.562;2023-08-24T08:18:01;9.27;;;3.17;;
31760;SDS011;18335;51.486;7.562;2023-08-24T08:20:29;14.18;;;3.80;;
31760;SDS011;18335;51.486;7.562;2023-08-24T08:22:56;12.55;;;4.90;;
31760;SDS011;18335;51.486;7.562;2023-08-24T08:25:23;15.35;;;3.78;;
31760;SDS011;18335;51.486;7.562;2023-08-24T08:27:49;12.40;;;4.15;;
31760;SDS011;18335;51.486;7.562;2023-08-24T08:30:16;11.63;;;3.75;;
31760;SDS011;18335;51.486;7.562;2023-08-24T08:32:45;8.98;;;4.25;;
31760;SDS011;18335;51.486;7.562;2023-08-24T08:35:12;8.85;;;3.10;;
31760;SDS011;18335;51.486;7.562;2023-08-24T08:37:40;11.18;;;3.72;;
31760;SDS011;18335;51.486;7.562;2023-08-24T08:40:08;12.68;;;3.63;;
31760;SDS011;18335;51.486;7.562;2023-08-24T08:42:36;9.25;;;3.60;;
31760;SDS011;18335;51.486;7.562;2023-08-24T08:45:04;9.88;;;3.63;;
31760;SDS011;18335;51.486;7.562;2023-08-24T08:47:35;10.13;;;3.47;;
31760;SDS011;18335;51.486;7.562;2023-08-24T08:50:02;8.60;;;3.30;;
31760;SDS011;18335;51.486;7.562;2023-08-24T08:52:29;8.90;;;3.53;;
31760;SDS011;18335;51.486;7.562;2023-08-24T08:54:58;9.30;;;4.35;;
31760;SDS011;18335;51.486;7.562;2023-08-24T08:57:25;9.68;;;3.63;;
31760;SDS011;18335;51.486;7.562;2023-08-24T08:59:52;12.38;;;4.85;;
31760;SDS011;18335;51.486;7.562;2023-08-24T09:02:19;6.75;;;3.60;;
31760;SDS011;18335;51.486;7.562;2023-08-24T09:04:47;8.40;;;3.30;;
31760;SDS011;18335;51.486;7.562;2023-08-24T09:07:16;8.82;;;3.65;;
31760;SDS011;18335;51.486;7.562;2023-08-24T09:09:43;10.35;;;3.60;;
31760;SDS011;18335;51.486;7.562;2023-08-24T09:12:11;7.20;;;3.70;;
31760;SDS011;18335;51.486;7.562;2023-08-24T09:14:38;8.93;;;3.08;;
31760;SDS011;18335;51.486;7.562;2023-08-24T09:17:06;9.23;;;3.70;;
31760;SDS011;18335;51.486;7.562;2023-08-24T09:19:34;9.30;;;3.78;;
31760;SDS011;18335;51.486;7.562;2023-08-24T09:22:03;6.88;;;2.80;;
31760;SDS011;18335;51.486;7.562;2023-08-24T09:24:31;9.63;;;3.60;;
31760;SDS011;18335;51.486;7.562;2023-08-24T09:26:58;8.73;;;3.35;;
31760;SDS011;18335;51.486;7.562;2023-08-24T09:29:27;10.77;;;3.53;;
31760;SDS011;18335;51.486;7.562;2023-08-24T09:31:53;8.27;;;3.30;;
31760;SDS011;18335;51.486;7.562;2023-08-24T09:34:20;8.02;;;2.92;;
31760;SDS011;18335;51.486;7.562;2023-08-24T09:36:51;9.35;;;3.45;;
31760;SDS011;18335;51.486;7.562;2023-08-24T09:39:18;11.52;;;3.30;;
31760;SDS011;18335;51.486;7.562;2023-08-24T09:41:45;8.85;;;3.17;;
31760;SDS011;18335;51.486;7.562;2023-08-24T09:44:13;8.65;;;3.67;;
31760;SDS011;18335;51.486;7.562;2023-08-24T09:46:42;11.63;;;3.00;;
31760;SDS011;18335;51.486;7.562;2023-08-24T09:49:09;9.43;;;3.33;;
31760;SDS011;18335;51.486;7.562;2023-08-24T09:51:37;9.25;;;3.55;;
31760;SDS011;18335;51.486;7.562;2023-08-24T09:54:05;7.78;;;3.50;;
31760;SDS011;18335;51.486;7.562;2023-08-24T09:56:34;8.13;;;3.25;;
31760;SDS011;18335;51.486;7.562;2023-08-24T09:59:09;8.23;;;3.17;;
31760;SDS011;18335;51.486;7.562;2023-08-24T10:01:38;7.83;;;3.27;;
31760;SDS011;18335;51.486;7.562;2023-08-24T10:04:10;6.30;;;2.92;;
31760;SDS011;18335;51.486;7.562;2023-08-24T10:06:38;6.63;;;2.78;;
31760;SDS011;18335;51.486;7.562;2023-08-24T10:09:06;8.98;;;3.47;;
31760;SDS011;18335;51.486;7.562;2023-08-24T10:11:36;8.10;;;3.13;;
31760;SDS011;18335;51.486;7.562;2023-08-24T10:14:10;7.32;;;3.40;;
31760;SDS011;18335;51.486;7.562;2023-08-24T10:16:43;6.00;;;3.10;;
31760;SDS011;18335;51.486;7.562;2023-08-24T10:19:12;8.90;;;3.50;;
31760;SDS011;18335;51.486;7.562;2023-08-24T10:21:40;7.60;;;3.45;;
31760;SDS011;18335;51.486;7.562;2023-08-24T10:24:08;10.20;;;4.05;;
31760;SDS011;18335;51.486;7.562;2023-08-24T10:26:35;8.55;;;3.28;;
31760;SDS011;18335;51.486;7.562;2023-08-24T10:29:05;7.65;;;3.33;;
31760;SDS011;18335;51.486;7.562;2023-08-24T10:31:32;7.88;;;3.13;;
31760;SDS011;18335;51.486;7.562;2023-08-24T10:34:04;10.32;;;3.45;;
31760;SDS011;18335;51.486;7.562;2023-08-24T10:36:32;5.80;;;2.70;;
31760;SDS011;18335;51.486;7.562;2023-08-24T10:39:02;8.32;;;3.03;;
31760;SDS011;18335;51.486;7.562;2023-08-24T10:41:39;11.93;;;4.25;;
31760;SDS011;18335;51.486;7.562;2023-08-24T10:44:19;7.85;;;2.95;;
31760;SDS011;18335;51.486;7.562;2023-08-24T10:49:33;5.50;;;2.60;;
31760;SDS011;18335;51.486;7.562;2023-08-24T10:54:45;7.93;;;3.20;;
31760;SDS011;18335;51.486;7.562;2023-08-24T10:57:20;10.50;;;2.92;;
31760;SDS011;18335;51.486;7.562;2023-08-24T11:00:03;7.35;;;3.15;;
31760;SDS011;18335;51.486;7.562;2023-08-24T11:02:41;7.93;;;3.28;;
31760;SDS011;18335;51.486;7.562;2023-08-24T11:05:17;9.85;;;3.20;;
31760;SDS011;18335;51.486;7.562;2023-08-24T11:07:53;8.45;;;3.10;;
31760;SDS011;18335;51.486;7.562;2023-08-24T11:10:22;9.57;;;3.20;;
31760;SDS011;18335;51.486;7.562;2023-08-24T11:13:05;8.85;;;2.70;;
31760;SDS011;18335;51.486;7.562;2023-08-24T11:15:37;6.28;;;2.50;;
31760;SDS011;18335;51.486;7.562;2023-08-24T11:18:11;8.98;;;3.05;;
31760;SDS011;18335;51.486;7.562;2023-08-24T11:20:48;7.45;;;3.08;;
31760;SDS011;18335;51.486;7.562;2023-08-24T11:23:16;12.23;;;3.50;;
31760;SDS011;18335;51.486;7.562;2023-08-24T11:25:43;9.10;;;3.10;;
31760;SDS011;18335;51.486;7.562;2023-08-24T11:28:10;8.00;;;3.20;;
31760;SDS011;18335;51.486;7.562;2023-08-24T11:30:37;7.82;;;2.58;;
31760;SDS011;18335;51.486;7.562;2023-08-24T11:33:04;6.57;;;2.70;;
31760;SDS011;18335;51.486;7.562;2023-08-24T11:35:34;8.75;;;3.88;;
31760;SDS011;18335;51.486;7.562;2023-08-24T11:38:03;6.90;;;2.92;;
31760;SDS011;18335;51.486;7.562;2023-08-24T11:40:30;7.40;;;2.60;;
31760;SDS011;18335;51.486;7.562;2023-08-24T11:42:56;9.00;;;3.22;;
31760;SDS011;18335;51.486;7.562;2023-08-24T11:45:24;7.18;;;2.90;;
31760;SDS011;18335;51.486;7.562;2023-08-24T11:47:57;8.75;;;3.08;;
31760;SDS011;18335;51.486;7.562;2023-08-24T11:50:26;10.13;;;3.63;;
31760;SDS011;18335;51.486;7.562;2023-08-24T11:52:53;9.40;;;3.38;;
31760;SDS011;18335;51.486;7.562;2023-08-24T11:55:22;5.80;;;2.85;;
31760;SDS011;18335;51.486;7.562;2023-08-24T11:57:49;9.77;;;2.58;;
31760;SDS011;18335;51.486;7.562;2023-08-24T12:00:15;7.53;;;2.70;;
31760;SDS011;18335;51.486;7.562;2023-08-24T12:02:44;8.02;;;2.50;;
31760;SDS011;18335;51.486;7.562;2023-08-24T12:05:21;6.38;;;2.70;;
31760;SDS011;18335;51.486;7.562;2023-08-24T12:07:49;6.40;;;2.97;;
31760;SDS011;18335;51.486;7.562;2023-08-24T12:10:17;7.10;;;2.97;;
31760;SDS011;18335;51.486;7.562;2023-08-24T12:12:46;6.05;;;2.65;;
31760;SDS011;18335;51.486;7.562;2023-08-24T12:15:17;8.98;;;3.05;;
31760;SDS011;18335;51.486;7.562;2023-08-24T12:17:45;8.45;;;2.97;;
31760;SDS011;18335;51.486;7.562;2023-08-24T12:20:17;7.75;;;2.45;;
31760;SDS011;18335;51.486;7.562;2023-08-24T12:22:53;7.65;;;2.83;;
31760;SDS011;18335;51.486;7.562;2023-08-24T12:25:23;7.80;;;3.28;;
31760;SDS011;18335;51.486;7.562;2023-08-24T12:27:52;6.40;;;3.03;;
31760;SDS011;18335;51.486;7.562;2023-08-24T12:30:19;6.90;;;2.90;;
31760;SDS011;18335;51.486;7.562;2023-08-24T12:32:47;9.45;;;2.80;;
31760;SDS011;18335;51.486;7.562;2023-08-24T12:35:16;7.55;;;2.70;;
31760;SDS011;18335;51.486;7.562;2023-08-24T12:37:43;7.28;;;2.92;;
31760;SDS011;18335;51.486;7.562;2023-08-24T12:40:10;8.05;;;2.58;;
31760;SDS011;18335;51.486;7.562;2023-08-24T12:42:39;6.63;;;2.53;;
31760;SDS011;18335;51.486;7.562;2023-08-24T12:45:08;8.75;;;3.03;;
31760;SDS011;18335;51.486;7.562;2023-08-24T12:47:35;6.03;;;2.85;;
31760;SDS011;18335;51.486;7.562;2023-08-24T12:50:04;8.95;;;3.08;;
31760;SDS011;18335;51.486;7.562;2023-08-24T12:52:33;6.88;;;2.72;;
31760;SDS011;18335;51.486;7.562;2023-08-24T12:55:00;7.70;;;2.85;;
31760;SDS011;18335;51.486;7.562;2023-08-24T12:57:29;8.90;;;3.33;;
31760;SDS011;18335;51.486;7.562;2023-08-24T12:59:56;9.23;;;3.55;;
31760;SDS011;18335;51.486;7.562;2023-08-24T13:02:25;7.80;;;2.80;;
31760;SDS011;18335;51.486;7.562;2023-08-24T13:04:51;9.57;;;2.85;;
31760;SDS011;18335;51.486;7.562;2023-08-24T13:07:18;9.95;;;3.05;;
31760;SDS011;18335;51.486;7.562;2023-08-24T13:09:45;8.82;;;3.53;;
31760;SDS011;18335;51.486;7.562;2023-08-24T13:12:12;7.15;;;2.85;;
31760;SDS011;18335;51.486;7.562;2023-08-24T13:14:38;9.75;;;2.95;;
31760;SDS011;18335;51.486;7.562;2023-08-24T13:17:05;6.80;;;2.90;;
31760;SDS011;18335;51.486;7.562;2023-08-24T13:19:33;8.05;;;3.05;;
31760;SDS011;18335;51.486;7.562;2023-08-24T13:22:00;7.95;;;2.70;;
31760;SDS011;18335;51.486;7.562;2023-08-24T13:24:27;6.72;;;2.80;;
31760;SDS011;18335;51.486;7.562;2023-08-24T13:26:53;12.18;;;3.17;;
31760;SDS011;18335;51.486;7.562;2023-08-24T13:29:20;8.38;;;3.05;;
31760;SDS011;18335;51.486;7.562;2023-08-24T13:31:47;6.90;;;3.08;;
31760;SDS011;18335;51.486;7.562;2023-08-24T13:34:13;9.77;;;3.42;;
31760;SDS011;18335;51.486;7.562;2023-08-24T13:36:41;10.88;;;3.58;;
31760;SDS011;18335;51.486;7.562;2023-08-24T13:39:08;6.38;;;2.35;;
31760;SDS011;18335;51.486;7.562;2023-08-24T13:41:36;10.60;;;2.75;;
31760;SDS011;18335;51.486;7.562;2023-08-24T13:44:02;6.47;;;2.63;;
31760;SDS011;18335;51.486;7.562;2023-08-24T13:46:29;5.90;;;2.50;;
31760;SDS011;18335;51.486;7.562;2023-08-24T13:48:56;8.68;;;3.08;;
31760;SDS011;18335;51.486;7.562;2023-08-24T13:51:23;9.20;;;2.58;;
31760;SDS011;18335;51.486;7.562;2023-08-24T13:53:51;7.25;;;2.58;;
31760;SDS011;18335;51.486;7.562;2023-08-24T13:56:18;11.55;;;3.42;;
31760;SDS011;18335;51.486;7.562;2023-08-24T13:58:45;10.35;;;2.88;;
31760;SDS011;18335;51.486;7.562;2023-08-24T14:01:12;8.93;;;2.70;;
31760;SDS011;18335;51.486;7.562;2023-08-24T14:03:39;11.20;;;2.80;;
31760;SDS011;18335;51.486;7.562;2023-08-24T14:06:08;10.80;;;3.00;;
31760;SDS011;18335;51.486;7.562;2023-08-24T14:08:36;10.82;;;2.67;;
31760;SDS011;18335;51.486;7.562;2023-08-24T14:11:04;9.38;;;2.92;;
31760;SDS011;18335;51.486;7.562;2023-08-24T14:13:31;8.68;;;3.00;;
31760;SDS011;18335;51.486;7.562;2023-08-24T14:15:57;8.35;;;2.85;;
31760;SDS011;18335;51.486;7.562;2023-08-24T14:18:24;7.78;;;3.05;;
31760;SDS011;18335;51.486;7.562;2023-08-24T14:20:51;7.25;;;2.58;;
31760;SDS011;18335;51.486;7.562;2023-08-24T14:23:17;10.52;;;2.75;;
31760;SDS011;18335;51.486;7.562;2023-08-24T14:25:45;8.43;;;2.92;;
31760;SDS011;18335;51.486;7.562;2023-08-24T14:28:14;10.55;;;3.10;;
31760;SDS011;18335;51.486;7.562;2023-08-24T14:30:40;10.13;;;3.08;;
31760;SDS011;18335;51.486;7.562;2023-08-24T14:33:07;8.38;;;3.13;;
31760;SDS011;18335;51.486;7.562;2023-08-24T14:35:34;9.05;;;3.25;;
31760;SDS011;18335;51.486;7.562;2023-08-24T14:38:01;7.72;;;3.08;;
31760;SDS011;18335;51.486;7.562;2023-08-24T14:40:28;9.15;;;3.40;;
31760;SDS011;18335;51.486;7.562;2023-08-24T14:42:54;8.60;;;3.05;;
31760;SDS011;18335;51.486;7.562;2023-08-24T14:45:22;7.93;;;2.63;;
31760;SDS011;18335;51.486;7.562;2023-08-24T14:47:49;11.73;;;3.30;;
31760;SDS011;18335;51.486;7.562;2023-08-24T14:50:16;9.70;;;3.63;;